createdAt,value
2022-09-03T00:02:18.810Z,17.60
2022-09-03T00:05:05.237Z,17.50
2022-09-03T00:07:39.534Z,17.50
2022-09-03T00:10:13.109Z,17.20
2022-09-03T00:12:45.892Z,17.40
2022-09-03T00:15:18.032Z,17.40
2022-09-03T00:18:02.153Z,17.40
2022-09-03T00:20:36.724Z,17.40
2022-09-03T00:23:12.134Z,17.40
2022-09-03T00:25:44.946Z,17.30
2022-09-03T00:28:18.759Z,17.30
2022-09-03T00:30:52.184Z,17.30
2022-09-03T00:33:23.477Z,17.20
2022-09-03T00:36:02.626Z,17.30
2022-09-03T00:38:30.425Z,17.20
2022-09-03T00:41:08.553Z,17.20
2022-09-03T00:44:10.807Z,17.20
2022-09-03T00:47:00.262Z,17.10
2022-09-03T00:50:06.268Z,17.10
2022-09-03T00:52:45.814Z,17.00
2022-09-03T00:55:24.900Z,17.00
2022-09-03T00:58:20.833Z,17.00
2022-09-03T01:03:40.527Z,16.90
2022-09-03T01:06:24.276Z,16.90
2022-09-03T01:09:05.288Z,16.90
2022-09-03T01:11:59.411Z,16.90
2022-09-03T01:14:41.608Z,16.90
2022-09-03T01:17:37.170Z,16.90
2022-09-03T01:20:17.361Z,16.80
2022-09-03T01:23:21.736Z,16.70
2022-09-03T01:25:59.461Z,16.70
2022-09-03T01:31:11.239Z,16.60
2022-09-03T01:33:46.231Z,16.60
2022-09-03T01:36:39.255Z,16.60
2022-09-03T01:39:12.636Z,16.60
2022-09-03T01:42:15.761Z,16.60
2022-09-03T01:45:09.461Z,16.50
2022-09-03T01:48:03.205Z,16.50
2022-09-03T01:50:41.922Z,16.50
2022-09-03T01:53:34.744Z,16.50
2022-09-03T01:56:38.186Z,16.40
2022-09-03T02:01:43.583Z,16.40
2022-09-03T02:04:20.499Z,16.40
2022-09-03T02:06:48.820Z,16.40
2022-09-03T02:09:16.572Z,16.40
2022-09-03T02:11:46.822Z,16.30
2022-09-03T02:14:14.209Z,16.30
2022-09-03T02:19:12.651Z,16.30
2022-09-03T02:21:44.982Z,16.30
2022-09-03T02:31:33.135Z,16.20
2022-09-03T02:36:32.867Z,16.20
2022-09-03T02:38:59.500Z,16.10
2022-09-03T02:41:27.326Z,16.10
2022-09-03T02:44:06.358Z,16.10
2022-09-03T02:46:39.964Z,16.10
2022-09-03T02:51:37.283Z,16.10
2022-09-03T03:01:25.316Z,16.00
2022-09-03T03:03:52.425Z,15.90
2022-09-03T03:06:22.432Z,15.90
2022-09-03T03:08:50.115Z,15.90
2022-09-03T03:11:18.353Z,15.90
2022-09-03T03:13:48.345Z,15.90
2022-09-03T03:16:16.705Z,15.80
2022-09-03T03:18:46.159Z,15.80
2022-09-03T03:21:17.757Z,15.70
2022-09-03T03:26:14.426Z,15.70
2022-09-03T03:31:11.547Z,15.70
2022-09-03T03:33:39.479Z,15.60
2022-09-03T03:36:11.531Z,15.60
2022-09-03T03:38:38.785Z,15.50
2022-09-03T03:41:24.042Z,15.50
2022-09-03T03:43:59.017Z,15.40
2022-09-03T03:46:29.074Z,15.40
2022-09-03T03:53:55.456Z,15.30
2022-09-03T04:01:22.601Z,15.30
2022-09-03T04:03:49.345Z,15.30
2022-09-03T04:06:19.105Z,15.20
2022-09-03T04:08:49.590Z,15.10
2022-09-03T04:11:21.448Z,15.10
2022-09-03T04:13:49.386Z,15.10
2022-09-03T04:16:21.729Z,15.20
2022-09-03T04:18:49.218Z,15.20
2022-09-03T04:21:18.969Z,15.10
2022-09-03T04:23:47.368Z,15.10
2022-09-03T04:26:25.708Z,15.10
2022-09-03T04:28:52.503Z,15.10
2022-09-03T04:31:20.652Z,15.10
2022-09-03T04:33:47.366Z,15.00
2022-09-03T04:36:20.409Z,15.00
2022-09-03T04:38:49.260Z,15.10
2022-09-03T04:41:18.775Z,15.10
2022-09-03T04:43:46.032Z,15.10
2022-09-03T04:48:48.483Z,15.10
2022-09-03T04:51:17.848Z,15.10
2022-09-03T04:53:46.639Z,15.10
2022-09-03T04:56:24.777Z,15.10
2022-09-03T04:58:56.767Z,15.00
2022-09-03T05:01:25.473Z,15.10
2022-09-03T05:08:52.006Z,15.20
2022-09-03T05:11:19.202Z,15.20
2022-09-03T05:13:54.128Z,15.30
2022-09-03T05:16:21.578Z,15.40
2022-09-03T05:18:48.406Z,15.40
2022-09-03T05:21:17.773Z,15.40
2022-09-03T05:23:46.892Z,15.50
2022-09-03T05:26:15.917Z,15.60
2022-09-03T05:28:43.538Z,15.70
2022-09-03T05:31:12.565Z,15.80
2022-09-03T05:33:50.289Z,15.80
2022-09-03T05:36:22.881Z,16.00
2022-09-03T05:41:18.955Z,16.10
2022-09-03T05:43:51.794Z,16.20
2022-09-03T05:48:45.834Z,16.40
2022-09-03T05:51:16.306Z,16.50
2022-09-03T05:53:44.514Z,16.70
2022-09-03T05:56:13.861Z,16.80
2022-09-03T05:58:44.171Z,17.10
2022-09-03T06:01:24.001Z,17.30
2022-09-03T06:03:54.662Z,17.50
2022-09-03T06:06:25.515Z,17.80
2022-09-03T06:08:58.050Z,18.10
2022-09-03T06:11:29.594Z,18.40
2022-09-03T06:13:57.670Z,18.70
2022-09-03T06:16:30.586Z,18.90
2022-09-03T06:21:27.165Z,19.40
2022-09-03T06:23:59.648Z,19.60
2022-09-03T06:26:30.621Z,19.80
2022-09-03T06:28:58.062Z,19.90
2022-09-03T06:31:25.455Z,20.10
2022-09-03T06:33:54.421Z,20.10
2022-09-03T06:36:22.632Z,20.00
2022-09-03T06:38:52.523Z,20.00
2022-09-03T06:41:24.865Z,19.90
2022-09-03T06:43:53.934Z,19.90
2022-09-03T06:46:22.902Z,19.70
2022-09-03T06:51:19.959Z,19.50
2022-09-03T06:53:52.225Z,19.40
2022-09-03T06:56:26.346Z,19.20
2022-09-03T06:58:56.256Z,19.30
2022-09-03T07:01:29.946Z,19.20
2022-09-03T07:03:58.889Z,19.10
2022-09-03T07:06:27.958Z,19.00
2022-09-03T07:11:26.837Z,19.00
2022-09-03T07:13:55.819Z,19.00
2022-09-03T07:16:26.001Z,19.00
2022-09-03T07:21:25.930Z,19.00
2022-09-03T07:23:54.204Z,19.00
2022-09-03T07:26:26.690Z,19.10
2022-09-03T07:28:54.174Z,19.10
2022-09-03T07:31:26.852Z,19.10
2022-09-03T07:34:09.880Z,19.10
2022-09-03T07:36:48.826Z,19.10
2022-09-03T07:39:17.059Z,19.20
2022-09-03T07:41:45.743Z,19.20
2022-09-03T07:44:19.458Z,19.30
2022-09-03T07:54:11.219Z,19.40
2022-09-03T07:56:39.716Z,19.40
2022-09-03T07:59:06.859Z,19.50
2022-09-03T08:01:34.974Z,19.50
2022-09-03T08:04:02.817Z,19.60
2022-09-03T08:06:30.854Z,19.70
2022-09-03T08:09:04.666Z,19.70
2022-09-03T08:11:43.309Z,19.70
2022-09-03T08:14:11.952Z,19.70
2022-09-03T08:16:42.192Z,19.80
2022-09-03T08:19:09.307Z,19.80
2022-09-03T08:21:35.932Z,19.80
2022-09-03T08:26:35.793Z,19.90
2022-09-03T08:31:30.369Z,20.10
2022-09-03T08:33:59.221Z,20.10
2022-09-03T08:36:27.010Z,20.20
2022-09-03T08:38:55.202Z,20.20
2022-09-03T08:41:48.627Z,20.30
2022-09-03T08:44:34.766Z,20.30
2022-09-03T08:47:23.337Z,20.40
2022-09-03T08:50:19.218Z,20.50
2022-09-03T08:53:11.394Z,20.50
2022-09-03T08:55:50.891Z,20.60
2022-09-03T09:01:01.245Z,20.80
2022-09-03T09:03:49.638Z,20.80
2022-09-03T09:06:45.429Z,20.90
2022-09-03T09:09:40.225Z,20.90
2022-09-03T09:12:35.690Z,21.00
2022-09-03T09:15:13.458Z,21.10
2022-09-03T09:18:10.735Z,21.10
2022-09-03T09:20:50.134Z,21.20
2022-09-03T09:23:54.106Z,21.20
2022-09-03T09:26:22.059Z,21.10
2022-09-03T09:29:02.091Z,21.30
2022-09-03T09:34:08.453Z,21.40
2022-09-03T09:36:52.024Z,21.40
2022-09-03T09:39:19.336Z,21.50
2022-09-03T09:42:09.264Z,21.50
2022-09-03T09:44:37.279Z,21.60
2022-09-03T09:47:28.796Z,21.60
2022-09-03T09:49:58.524Z,21.70
2022-09-03T09:52:28.504Z,21.70
2022-09-03T09:55:10.576Z,21.80
2022-09-03T10:05:15.866Z,21.90
2022-09-03T10:07:42.895Z,21.90
2022-09-03T10:10:19.558Z,22.00
2022-09-03T10:12:51.470Z,22.00
2022-09-03T10:15:36.490Z,22.10
2022-09-03T10:20:44.359Z,22.10
2022-09-03T10:23:16.389Z,22.20
2022-09-03T10:26:07.240Z,22.30
2022-09-03T10:28:41.065Z,22.40
2022-09-03T10:31:18.979Z,22.40
2022-09-03T10:34:09.470Z,22.40
2022-09-03T10:36:42.376Z,22.40
2022-09-03T10:39:13.619Z,22.50
2022-09-03T10:42:14.228Z,22.40
2022-09-03T10:44:43.867Z,22.60
2022-09-03T10:47:22.128Z,22.60
2022-09-03T10:49:50.816Z,22.60
2022-09-03T10:52:25.830Z,22.60
2022-09-03T10:55:15.298Z,22.70
2022-09-03T10:57:54.248Z,22.70
2022-09-03T11:00:22.328Z,22.70
2022-09-03T11:03:27.972Z,22.80
2022-09-03T11:06:00.272Z,22.90
2022-09-03T11:08:53.496Z,22.90
2022-09-03T11:11:27.676Z,23.00
2022-09-03T11:14:20.876Z,23.10
2022-09-03T11:16:52.636Z,23.10
2022-09-03T11:19:24.873Z,23.20
2022-09-03T11:21:51.928Z,23.20
2022-09-03T11:24:25.028Z,23.20
2022-09-03T11:27:34.187Z,23.40
2022-09-03T11:30:09.600Z,23.40
2022-09-03T11:32:55.525Z,23.40
2022-09-03T11:35:28.225Z,23.50
2022-09-03T11:38:00.082Z,23.50
2022-09-03T11:40:35.482Z,23.60
2022-09-03T11:43:23.988Z,23.60
2022-09-03T11:46:27.435Z,23.80
2022-09-03T11:49:10.058Z,23.80
2022-09-03T11:51:39.527Z,23.80
2022-09-03T11:54:07.476Z,23.90
2022-09-03T11:56:36.400Z,24.00
2022-09-03T11:59:17.598Z,24.00
2022-09-03T12:02:11.934Z,24.20
2022-09-03T12:05:02.323Z,24.20
2022-09-03T12:07:48.286Z,24.30
2022-09-03T12:10:38.259Z,24.30
2022-09-03T12:13:49.310Z,24.40
2022-09-03T12:16:21.627Z,24.40
2022-09-03T12:18:52.898Z,24.40
2022-09-03T12:21:20.430Z,24.40
2022-09-03T12:23:58.165Z,24.50
2022-09-03T12:26:27.277Z,24.50
2022-09-03T12:28:59.515Z,24.60
2022-09-03T12:31:30.034Z,22.60
2022-09-03T12:34:00.822Z,24.70
2022-09-03T12:36:38.583Z,24.70
2022-09-03T12:40:05.060Z,24.70
2022-09-03T12:42:12.149Z,24.80
2022-09-03T12:44:42.133Z,24.80
2022-09-03T12:50:08.514Z,25.00
2022-09-03T12:52:48.518Z,25.10
2022-09-03T12:55:27.423Z,25.10
2022-09-03T12:58:23.780Z,25.10
2022-09-03T13:01:11.145Z,25.20
2022-09-03T13:03:54.258Z,25.10
2022-09-03T13:06:25.477Z,25.10
2022-09-03T13:08:57.574Z,25.10
2022-09-03T13:11:25.735Z,25.00
2022-09-03T13:14:10.065Z,25.00
2022-09-03T13:16:54.839Z,25.10
2022-09-03T13:19:43.258Z,25.10
2022-09-03T13:22:19.818Z,25.10
2022-09-03T13:25:12.048Z,25.10
2022-09-03T13:27:51.394Z,25.00
2022-09-03T13:30:25.820Z,25.10
2022-09-03T13:33:12.432Z,25.10
2022-09-03T13:35:48.608Z,25.10
2022-09-03T13:38:37.066Z,25.00
2022-09-03T13:41:18.650Z,25.10
2022-09-03T13:44:16.381Z,25.00
2022-09-03T13:46:52.632Z,25.00
2022-09-03T13:50:07.093Z,24.80
2022-09-03T13:52:49.259Z,24.80
2022-09-03T13:55:18.655Z,24.90
2022-09-03T13:57:50.797Z,24.80
2022-09-03T14:00:30.283Z,24.80
2022-09-03T14:03:30.235Z,24.80
2022-09-03T14:06:11.944Z,24.80
2022-09-03T14:11:41.094Z,24.80
2022-09-03T14:14:28.669Z,24.80
2022-09-03T14:17:12.392Z,24.80
2022-09-03T14:20:02.513Z,24.80
2022-09-03T14:22:59.303Z,24.80
2022-09-03T14:25:27.460Z,24.80
2022-09-03T14:28:11.835Z,24.80
2022-09-03T14:30:49.618Z,24.80
2022-09-03T14:33:38.346Z,24.80
2022-09-03T14:36:24.150Z,24.80
2022-09-03T14:39:32.699Z,24.70
2022-09-03T14:42:40.864Z,24.70
2022-09-03T14:45:29.062Z,24.70
2022-09-03T14:48:22.084Z,24.80
2022-09-03T14:51:26.884Z,24.80
2022-09-03T14:54:12.400Z,24.80
2022-09-03T14:59:33.737Z,24.70
2022-09-03T15:02:31.572Z,24.60
2022-09-03T15:05:15.605Z,24.60
2022-09-03T15:07:49.264Z,24.60
2022-09-03T15:10:25.380Z,24.70
2022-09-03T15:12:57.705Z,24.60
2022-09-03T15:15:34.800Z,24.60
2022-09-03T15:18:21.066Z,24.60
2022-09-03T15:20:53.309Z,24.70
2022-09-03T15:23:51.730Z,24.60
2022-09-03T15:26:59.175Z,24.70
2022-09-03T15:29:51.472Z,24.60
2022-09-03T15:32:36.889Z,24.70
2022-09-03T15:37:37.085Z,24.60
2022-09-03T15:40:26.139Z,24.60
2022-09-03T15:43:09.050Z,24.70
2022-09-03T15:45:46.542Z,24.70
2022-09-03T15:48:48.568Z,24.70
2022-09-03T15:51:26.396Z,24.50
2022-09-03T15:54:03.625Z,24.60
2022-09-03T15:56:45.375Z,24.60
2022-09-03T15:59:59.361Z,24.50
2022-09-03T16:03:07.261Z,24.50
2022-09-03T16:05:50.756Z,24.50
2022-09-03T16:08:26.257Z,24.50
2022-09-03T16:11:13.530Z,24.50
2022-09-03T16:14:09.871Z,24.50
2022-09-03T16:17:13.724Z,24.40
2022-09-03T16:20:06.113Z,24.40
2022-09-03T16:23:13.072Z,24.40
2022-09-03T16:26:09.631Z,24.30
2022-09-03T16:28:59.683Z,24.30
2022-09-03T16:31:52.541Z,24.30
2022-09-03T16:34:45.482Z,24.20
2022-09-03T16:37:26.689Z,24.20
2022-09-03T16:40:13.452Z,24.10
2022-09-03T16:42:59.450Z,24.00
2022-09-03T16:45:48.931Z,24.00
2022-09-03T16:51:08.113Z,23.90
2022-09-03T16:54:06.057Z,23.90
2022-09-03T16:56:48.337Z,23.90
2022-09-03T16:59:17.923Z,23.90
2022-09-03T17:02:40.415Z,23.90
2022-09-03T17:05:19.687Z,23.80
2022-09-03T17:08:13.634Z,23.80
2022-09-03T17:10:55.161Z,23.70
2022-09-03T17:14:00.485Z,23.70
2022-09-03T17:16:45.941Z,23.70
2022-09-03T17:19:34.823Z,23.60
2022-09-03T17:22:26.583Z,23.60
2022-09-03T17:25:02.974Z,23.60
2022-09-03T17:28:16.379Z,23.60
2022-09-03T17:30:56.271Z,23.50
2022-09-03T17:34:00.794Z,23.50
2022-09-03T17:36:31.360Z,23.40
2022-09-03T17:39:43.622Z,23.40
2022-09-03T17:42:33.366Z,23.40
2022-09-03T17:45:25.659Z,23.40
2022-09-03T17:48:22.258Z,23.30
2022-09-03T17:51:07.128Z,23.20
2022-09-03T17:53:47.357Z,23.10
2022-09-03T17:56:26.739Z,23.10
2022-09-03T17:59:08.065Z,23.10
2022-09-03T18:01:38.466Z,23.00
2022-09-03T18:04:29.071Z,23.00
2022-09-03T18:07:39.873Z,23.00
2022-09-03T18:10:32.096Z,22.90
2022-09-03T18:13:23.609Z,22.90
2022-09-03T18:16:18.517Z,22.80
2022-09-03T18:18:51.257Z,22.80
2022-09-03T18:21:42.693Z,22.70
2022-09-03T18:24:51.076Z,22.60
2022-09-03T18:27:40.734Z,22.50
2022-09-03T18:30:28.759Z,22.50
2022-09-03T18:33:14.928Z,22.50
2022-09-03T18:36:03.369Z,22.50
2022-09-03T18:38:51.507Z,22.40
2022-09-03T18:42:03.480Z,22.40
2022-09-03T18:45:20.909Z,22.40
2022-09-03T18:48:25.886Z,22.40
2022-09-03T18:51:17.172Z,22.40
2022-09-03T18:54:15.253Z,22.30
2022-09-03T18:57:10.786Z,22.30
2022-09-03T19:00:12.104Z,22.20
2022-09-03T19:03:18.982Z,22.20
2022-09-03T19:06:34.577Z,22.20
2022-09-03T19:09:41.842Z,22.10
2022-09-03T19:12:59.220Z,22.00
2022-09-03T19:15:58.692Z,21.90
2022-09-03T19:19:14.896Z,21.90
2022-09-03T19:22:17.803Z,21.80
2022-09-03T19:25:18.436Z,21.70
2022-09-03T19:28:21.621Z,21.70
2022-09-03T19:31:37.220Z,21.60
2022-09-03T19:34:53.189Z,21.50
2022-09-03T19:38:08.090Z,21.50
2022-09-03T19:41:27.042Z,21.30
2022-09-03T19:44:30.385Z,21.30
2022-09-03T19:47:19.451Z,21.20
2022-09-03T19:50:22.868Z,21.20
2022-09-03T19:55:57.945Z,21.00
2022-09-03T19:58:47.948Z,20.90
2022-09-03T20:01:33.534Z,20.90
2022-09-03T20:04:25.310Z,20.80
2022-09-03T20:07:10.765Z,20.70
2022-09-03T20:10:00.799Z,20.50
2022-09-03T20:12:40.283Z,20.50
2022-09-03T20:15:08.564Z,20.40
2022-09-03T20:18:09.612Z,20.40
2022-09-03T20:20:55.045Z,20.30
2022-09-03T20:23:34.798Z,20.30
2022-09-03T20:26:33.067Z,20.20
2022-09-03T20:31:48.020Z,20.10
2022-09-03T20:34:42.101Z,20.00
2022-09-03T20:37:28.192Z,20.00
2022-09-03T20:40:40.092Z,20.00
2022-09-03T20:43:29.872Z,19.90
2022-09-03T20:48:50.030Z,19.80
2022-09-03T20:51:22.750Z,19.80
2022-09-03T20:54:20.680Z,19.80
2022-09-03T20:57:05.829Z,19.60
2022-09-03T20:59:38.296Z,19.70
2022-09-03T21:02:30.298Z,17.70
2022-09-03T21:05:17.096Z,19.70
2022-09-03T21:07:57.649Z,19.70
2022-09-03T21:10:46.142Z,19.60
2022-09-03T21:13:25.044Z,19.60
2022-09-03T21:16:05.511Z,19.60
2022-09-03T21:18:49.768Z,19.60
2022-09-03T21:21:35.518Z,19.50
2022-09-03T21:24:16.084Z,19.50
2022-09-03T21:26:46.659Z,19.50
2022-09-03T21:29:23.377Z,19.40
2022-09-03T21:32:02.994Z,19.30
2022-09-03T21:34:43.137Z,19.30
2022-09-03T21:37:13.092Z,19.20
2022-09-03T21:39:48.656Z,19.20
2022-09-03T21:42:45.730Z,19.10
2022-09-03T21:45:34.050Z,19.10
2022-09-03T21:48:08.513Z,19.00
2022-09-03T21:50:55.557Z,19.00
2022-09-03T21:53:44.419Z,18.90
2022-09-03T21:56:44.817Z,18.90
2022-09-03T21:59:42.981Z,18.80
2022-09-03T22:02:17.879Z,18.70
2022-09-03T22:07:26.400Z,18.70
2022-09-03T22:10:20.441Z,18.60
2022-09-03T22:13:28.897Z,18.60
2022-09-03T22:16:07.116Z,18.60
2022-09-03T22:18:37.866Z,18.50
2022-09-03T22:21:19.686Z,18.50
2022-09-03T22:24:24.348Z,18.30
2022-09-03T22:27:18.398Z,18.30
2022-09-03T22:29:54.189Z,18.20
2022-09-03T22:32:47.248Z,18.20
2022-09-03T22:35:40.082Z,18.20
2022-09-03T22:38:36.973Z,18.10
2022-09-03T22:41:30.284Z,18.00
2022-09-03T22:44:32.065Z,17.90
2022-09-03T22:47:20.904Z,17.80
2022-09-03T22:50:22.635Z,17.70
2022-09-03T22:53:17.009Z,17.70
2022-09-03T22:55:54.155Z,17.60
2022-09-03T22:58:29.173Z,17.60
2022-09-03T23:01:05.495Z,17.50
2022-09-03T23:03:42.084Z,17.50
2022-09-03T23:06:38.421Z,17.40
2022-09-03T23:09:14.285Z,17.40
2022-09-03T23:11:56.335Z,17.30
2022-09-03T23:14:28.262Z,17.30
2022-09-03T23:17:06.002Z,17.30
2022-09-03T23:19:46.932Z,17.30
2022-09-03T23:22:24.923Z,17.30
2022-09-03T23:24:59.828Z,17.30
2022-09-03T23:27:53.517Z,17.20
2022-09-03T23:32:52.582Z,17.10
2022-09-03T23:38:13.359Z,17.10
2022-09-03T23:43:41.154Z,17.00
2022-09-03T23:46:48.747Z,17.00
2022-09-03T23:49:40.364Z,17.00
2022-09-03T23:52:20.682Z,16.90
2022-09-03T23:54:53.243Z,16.90
2022-09-03T23:57:41.141Z,16.80
